sensor_id;sensor_type;location;lat;lon;timestamp;pressure;altitude;pressure_sealevel;temperature;humidity
46007;BME280;31738;50.188;8.524;2023-06-10T00:00:11;98602.16;;;22.43;49.08
46007;BME280;31738;50.188;8.524;2023-06-10T00:02:38;98604.47;;;22.41;49.25
46007;BME280;31738;50.188;8.524;2023-06-10T00:05:04;98603.66;;;22.40;49.22
46007;BME280;31738;50.188;8.524;2023-06-10T00:07:30;98601.28;;;22.39;49.44
46007;BME280;31738;50.188;8.524;2023-06-10T00:09:55;98600.47;;;22.38;49.27
46007;BME280;31738;50.188;8.524;2023-06-10T00:12:21;98595.00;;;22.38;49.12
46007;BME280;31738;50.188;8.524;2023-06-10T00:14:46;98605.94;;;22.38;49.15
46007;BME280;31738;50.188;8.524;2023-06-10T00:17:13;98598.09;;;22.37;49.23
46007;BME280;31738;50.188;8.524;2023-06-10T00:19:40;98594.94;;;22.35;49.55
46007;BME280;31738;50.188;8.524;2023-06-10T00:22:06;98598.81;;;22.34;48.56
46007;BME280;31738;50.188;8.524;2023-06-10T00:24:31;98600.41;;;22.35;48.75
46007;BME280;31738;50.188;8.524;2023-06-10T00:26:57;98599.16;;;22.32;48.58
46007;BME280;31738;50.188;8.524;2023-06-10T00:29:22;98603.84;;;22.32;48.22
46007;BME280;31738;50.188;8.524;2023-06-10T00:31:47;98600.69;;;22.30;48.21
46007;BME280;31738;50.188;8.524;2023-06-10T00:34:13;98604.91;;;22.27;48.39
46007;BME280;31738;50.188;8.524;2023-06-10T00:36:38;98601.84;;;22.29;48.76
46007;BME280;31738;50.188;8.524;2023-06-10T00:39:04;98594.75;;;22.28;48.42
46007;BME280;31738;50.188;8.524;2023-06-10T00:41:30;98596.63;;;22.24;48.47
46007;BME280;31738;50.188;8.524;2023-06-10T00:43:56;98601.63;;;22.22;48.31
46007;BME280;31738;50.188;8.524;2023-06-10T00:46:22;98596.63;;;22.24;47.70
46007;BME280;31738;50.188;8.524;2023-06-10T00:48:49;98602.44;;;22.22;48.38
46007;BME280;31738;50.188;8.524;2023-06-10T00:51:15;98598.50;;;22.20;47.69
46007;BME280;31738;50.188;8.524;2023-06-10T00:53:41;98600.31;;;22.16;47.52
46007;BME280;31738;50.188;8.524;2023-06-10T00:56:08;98599.50;;;22.15;47.66
46007;BME280;31738;50.188;8.524;2023-06-10T00:58:34;98607.63;;;22.12;47.61
46007;BME280;31738;50.188;8.524;2023-06-10T01:01:01;98604.22;;;22.15;47.27
46007;BME280;31738;50.188;8.524;2023-06-10T01:03:27;98614.44;;;22.18;46.90
46007;BME280;31738;50.188;8.524;2023-06-10T01:06:01;98619.19;;;22.21;46.69
46007;BME280;31738;50.188;8.524;2023-06-10T01:08:37;98620.34;;;22.20;46.52
46007;BME280;31738;50.188;8.524;2023-06-10T01:11:07;98617.88;;;22.15;46.52
46007;BME280;31738;50.188;8.524;2023-06-10T01:13:36;98619.44;;;22.16;46.51
46007;BME280;31738;50.188;8.524;2023-06-10T01:16:03;98624.38;;;22.10;46.76
46007;BME280;31738;50.188;8.524;2023-06-10T01:18:30;98622.06;;;22.12;46.39
46007;BME280;31738;50.188;8.524;2023-06-10T01:20:57;98626.41;;;22.13;46.13
46007;BME280;31738;50.188;8.524;2023-06-10T01:23:23;98635.66;;;22.09;45.83
46007;BME280;31738;50.188;8.524;2023-06-10T01:26:04;98635.75;;;22.12;46.32
46007;BME280;31738;50.188;8.524;2023-06-10T01:28:52;98634.88;;;22.08;45.78
46007;BME280;31738;50.188;8.524;2023-06-10T01:31:41;98637.94;;;22.07;45.65
46007;BME280;31738;50.188;8.524;2023-06-10T01:34:10;98643.25;;;22.00;45.56
46007;BME280;31738;50.188;8.524;2023-06-10T01:36:38;98643.25;;;22.00;45.64
46007;BME280;31738;50.188;8.524;2023-06-10T01:39:08;98652.22;;;22.00;45.56
46007;BME280;31738;50.188;8.524;2023-06-10T01:41:36;98649.41;;;21.97;45.56
46007;BME280;31738;50.188;8.524;2023-06-10T01:44:01;98645.53;;;21.98;45.69
46007;BME280;31738;50.188;8.524;2023-06-10T01:46:27;98649.41;;;21.97;45.21
46007;BME280;31738;50.188;8.524;2023-06-10T01:48:53;98646.22;;;21.94;45.77
46007;BME280;31738;50.188;8.524;2023-06-10T01:51:18;98643.03;;;21.92;45.41
46007;BME280;31738;50.188;8.524;2023-06-10T01:53:44;98646.00;;;21.87;45.36
46007;BME280;31738;50.188;8.524;2023-06-10T01:56:09;98654.66;;;21.89;45.40
46007;BME280;31738;50.188;8.524;2023-06-10T01:58:35;98649.19;;;21.89;45.37
46007;BME280;31738;50.188;8.524;2023-06-10T02:01:00;98652.63;;;21.86;44.83
46007;BME280;31738;50.188;8.524;2023-06-10T02:03:26;98651.94;;;21.89;45.50
46007;BME280;31738;50.188;8.524;2023-06-10T02:05:51;98660.81;;;21.86;45.46
46007;BME280;31738;50.188;8.524;2023-06-10T02:08:17;98652.88;;;21.81;45.04
46007;BME280;31738;50.188;8.524;2023-06-10T02:10:42;98663.03;;;21.81;45.18
46007;BME280;31738;50.188;8.524;2023-06-10T02:13:08;98656.66;;;21.77;45.00
46007;BME280;31738;50.188;8.524;2023-06-10T02:15:36;98665.84;;;21.72;45.10
46007;BME280;31738;50.188;8.524;2023-06-10T02:18:01;98665.84;;;21.72;45.02
46007;BME280;31738;50.188;8.524;2023-06-10T02:20:27;98671.81;;;21.74;44.94
46007;BME280;31738;50.188;8.524;2023-06-10T02:22:53;98663.63;;;21.74;44.97
46007;BME280;31738;50.188;8.524;2023-06-10T02:25:18;98664.41;;;21.75;45.04
46007;BME280;31738;50.188;8.524;2023-06-10T02:27:44;98658.34;;;21.69;44.86
46007;BME280;31738;50.188;8.524;2023-06-10T02:30:09;98655.56;;;21.66;45.09
46007;BME280;31738;50.188;8.524;2023-06-10T02:32:36;98660.22;;;21.65;45.09
46007;BME280;31738;50.188;8.524;2023-06-10T02:35:02;98655.91;;;21.64;45.86
46007;BME280;31738;50.188;8.524;2023-06-10T02:37:29;98664.09;;;21.64;45.37
46007;BME280;31738;50.188;8.524;2023-06-10T02:39:55;98665.22;;;21.63;45.39
46007;BME280;31738;50.188;8.524;2023-06-10T02:42:21;98662.03;;;21.61;45.43
46007;BME280;31738;50.188;8.524;2023-06-10T02:44:48;98663.41;;;21.55;45.38
46007;BME280;31738;50.188;8.524;2023-06-10T02:47:20;98657.94;;;21.55;45.63
46007;BME280;31738;50.188;8.524;2023-06-10T02:49:45;98663.75;;;21.54;45.61
46007;BME280;31738;50.188;8.524;2023-06-10T02:52:11;98673.44;;;21.51;45.12
46007;BME280;31738;50.188;8.524;2023-06-10T02:54:37;98672.63;;;21.51;45.13
46007;BME280;31738;50.188;8.524;2023-06-10T02:57:05;98669.13;;;21.50;45.34
46007;BME280;31738;50.188;8.524;2023-06-10T02:59:31;98669.13;;;21.50;45.75
46007;BME280;31738;50.188;8.524;2023-06-10T03:01:58;98660.50;;;21.48;45.43
46007;BME280;31738;50.188;8.524;2023-06-10T03:04:26;98666.19;;;21.43;45.74
46007;BME280;31738;50.188;8.524;2023-06-10T03:07:00;98664.84;;;21.37;45.40
46007;BME280;31738;50.188;8.524;2023-06-10T03:09:31;98664.41;;;21.35;45.70
46007;BME280;31738;50.188;8.524;2023-06-10T03:11:58;98665.53;;;21.34;45.56
46007;BME280;31738;50.188;8.524;2023-06-10T03:14:25;98662.00;;;21.34;45.77
46007;BME280;31738;50.188;8.524;2023-06-10T03:16:51;98665.41;;;21.31;45.47
46007;BME280;31738;50.188;8.524;2023-06-10T03:19:18;98664.66;;;21.30;45.65
46007;BME280;31738;50.188;8.524;2023-06-10T03:21:50;98662.69;;;21.31;46.05
46007;BME280;31738;50.188;8.524;2023-06-10T03:24:20;98675.44;;;21.27;46.07
46007;BME280;31738;50.188;8.524;2023-06-10T03:26:45;98670.69;;;21.24;45.97
46007;BME280;31738;50.188;8.524;2023-06-10T03:29:11;98665.56;;;21.22;46.37
46007;BME280;31738;50.188;8.524;2023-06-10T03:31:37;98670.56;;;21.20;46.38
46007;BME280;31738;50.188;8.524;2023-06-10T03:34:05;98670.13;;;21.18;46.08
46007;BME280;31738;50.188;8.524;2023-06-10T03:36:31;98671.59;;;21.16;46.44
46007;BME280;31738;50.188;8.524;2023-06-10T03:38:57;98670.13;;;21.18;46.98
46007;BME280;31738;50.188;8.524;2023-06-10T03:41:24;98661.03;;;21.14;47.28
46007;BME280;31738;50.188;8.524;2023-06-10T03:43:50;98653.09;;;21.09;47.21
46007;BME280;31738;50.188;8.524;2023-06-10T03:46:16;98662.41;;;21.08;46.95
46007;BME280;31738;50.188;8.524;2023-06-10T03:48:42;98661.50;;;21.04;47.40
46007;BME280;31738;50.188;8.524;2023-06-10T03:51:08;98656.06;;;21.04;47.06
46007;BME280;31738;50.188;8.524;2023-06-10T03:53:34;98670.81;;;21.03;47.22
46007;BME280;31738;50.188;8.524;2023-06-10T03:55:59;98663.09;;;21.05;46.88
46007;BME280;31738;50.188;8.524;2023-06-10T03:58:26;98663.91;;;21.06;47.22
46007;BME280;31738;50.188;8.524;2023-06-10T04:00:52;98663.09;;;21.05;47.36
46007;BME280;31738;50.188;8.524;2023-06-10T04:03:23;98666.97;;;21.04;47.45
46007;BME280;31738;50.188;8.524;2023-06-10T04:05:51;98667.31;;;21.03;47.41
46007;BME280;31738;50.188;8.524;2023-06-10T04:08:17;98671.63;;;21.04;47.27
46007;BME280;31738;50.188;8.524;2023-06-10T04:10:42;98668.09;;;21.03;47.11
46007;BME280;31738;50.188;8.524;2023-06-10T04:13:08;98674.34;;;21.04;47.47
46007;BME280;31738;50.188;8.524;2023-06-10T04:15:39;98669.22;;;21.02;47.68
46007;BME280;31738;50.188;8.524;2023-06-10T04:18:09;98670.81;;;21.03;47.46
46007;BME280;31738;50.188;8.524;2023-06-10T04:20:35;98668.53;;;21.05;47.67
46007;BME280;31738;50.188;8.524;2023-06-10T04:23:00;98670.13;;;21.06;47.74
46007;BME280;31738;50.188;8.524;2023-06-10T04:25:27;98672.97;;;21.10;47.66
46007;BME280;31738;50.188;8.524;2023-06-10T04:27:54;98673.44;;;21.12;47.52
46007;BME280;31738;50.188;8.524;2023-06-10T04:30:20;98671.94;;;21.14;47.36
46007;BME280;31738;50.188;8.524;2023-06-10T04:32:47;98680.59;;;21.16;47.76
46007;BME280;31738;50.188;8.524;2023-06-10T04:35:15;98674.44;;;21.19;47.95
46007;BME280;31738;50.188;8.524;2023-06-10T04:37:41;98671.38;;;21.21;47.75
46007;BME280;31738;50.188;8.524;2023-06-10T04:40:08;98674.91;;;21.21;47.53
46007;BME280;31738;50.188;8.524;2023-06-10T04:42:35;98674.63;;;21.26;47.82
46007;BME280;31738;50.188;8.524;2023-06-10T04:45:00;98667.72;;;21.29;47.62
46007;BME280;31738;50.188;8.524;2023-06-10T04:47:26;98663.84;;;21.30;47.82
46007;BME280;31738;50.188;8.524;2023-06-10T04:49:52;98664.41;;;21.35;48.26
46007;BME280;31738;50.188;8.524;2023-06-10T04:52:17;98660.53;;;21.36;48.03
46007;BME280;31738;50.188;8.524;2023-06-10T04:54:43;98653.22;;;21.40;47.99
46007;BME280;31738;50.188;8.524;2023-06-10T04:57:09;98661.88;;;21.42;47.74
46007;BME280;31738;50.188;8.524;2023-06-10T04:59:37;98649.81;;;21.43;48.20
46007;BME280;31738;50.188;8.524;2023-06-10T05:02:03;98647.53;;;21.45;47.84
46007;BME280;31738;50.188;8.524;2023-06-10T05:04:29;98657.53;;;21.53;48.11
46007;BME280;31738;50.188;8.524;2023-06-10T05:06:55;98651.38;;;21.56;48.02
46007;BME280;31738;50.188;8.524;2023-06-10T05:09:20;98647.94;;;21.59;48.28
46007;BME280;31738;50.188;8.524;2023-06-10T05:11:46;98651.44;;;21.60;48.30
46007;BME280;31738;50.188;8.524;2023-06-10T05:14:29;98649.97;;;21.62;48.32
46007;BME280;31738;50.188;8.524;2023-06-10T05:16:55;98655.63;;;21.69;48.54
46007;BME280;31738;50.188;8.524;2023-06-10T05:19:20;98653.34;;;21.71;48.07
46007;BME280;31738;50.188;8.524;2023-06-10T05:21:46;98655.88;;;21.76;48.49
46007;BME280;31738;50.188;8.524;2023-06-10T05:24:11;98651.28;;;21.80;48.97
46007;BME280;31738;50.188;8.524;2023-06-10T05:26:37;98656.06;;;21.83;48.26
46007;BME280;31738;50.188;8.524;2023-06-10T05:29:04;98655.34;;;21.86;48.61
46007;BME280;31738;50.188;8.524;2023-06-10T05:31:29;98657.03;;;21.91;48.35
46007;BME280;31738;50.188;8.524;2023-06-10T05:33:55;98649.75;;;21.95;47.94
46007;BME280;31738;50.188;8.524;2023-06-10T05:36:20;98651.44;;;22.00;48.68
46007;BME280;31738;50.188;8.524;2023-06-10T05:38:46;98648.88;;;22.07;48.62
46007;BME280;31738;50.188;8.524;2023-06-10T05:41:11;98652.50;;;22.11;48.91
46007;BME280;31738;50.188;8.524;2023-06-10T05:43:37;98650.66;;;22.15;50.21
46007;BME280;31738;50.188;8.524;2023-06-10T05:46:02;98662.38;;;22.15;49.09
46007;BME280;31738;50.188;8.524;2023-06-10T05:48:28;98664.06;;;22.20;48.40
46007;BME280;31738;50.188;8.524;2023-06-10T05:50:53;98660.28;;;22.24;48.96
46007;BME280;31738;50.188;8.524;2023-06-10T05:53:19;98656.50;;;22.29;48.83
46007;BME280;31738;50.188;8.524;2023-06-10T05:55:45;98662.84;;;22.33;48.37
46007;BME280;31738;50.188;8.524;2023-06-10T05:58:11;98657.13;;;22.38;48.42
46007;BME280;31738;50.188;8.524;2023-06-10T06:00:38;98660.72;;;22.42;48.25
46007;BME280;31738;50.188;8.524;2023-06-10T06:03:05;98663.91;;;22.44;48.56
46007;BME280;31738;50.188;8.524;2023-06-10T06:05:31;98662.50;;;22.50;47.88
46007;BME280;31738;50.188;8.524;2023-06-10T06:08:01;98662.69;;;22.57;47.79
46007;BME280;31738;50.188;8.524;2023-06-10T06:10:27;98672.22;;;22.63;47.67
46007;BME280;31738;50.188;8.524;2023-06-10T06:12:52;98680.88;;;22.65;47.05
46007;BME280;31738;50.188;8.524;2023-06-10T06:15:18;98676.25;;;22.69;47.47
46007;BME280;31738;50.188;8.524;2023-06-10T06:17:43;98667.81;;;22.74;47.72
46007;BME280;31738;50.188;8.524;2023-06-10T06:20:09;98671.34;;;22.74;47.13
46007;BME280;31738;50.188;8.524;2023-06-10T06:22:34;98661.63;;;22.77;48.61
46007;BME280;31738;50.188;8.524;2023-06-10T06:25:00;98667.53;;;22.79;47.83
46007;BME280;31738;50.188;8.524;2023-06-10T06:27:25;98667.34;;;22.87;47.43
46007;BME280;31738;50.188;8.524;2023-06-10T06:29:50;98677.66;;;22.94;46.74
46007;BME280;31738;50.188;8.524;2023-06-10T06:32:16;98681.72;;;23.00;46.39
46007;BME280;31738;50.188;8.524;2023-06-10T06:34:41;98679.56;;;23.09;46.71
46007;BME280;31738;50.188;8.524;2023-06-10T06:37:07;98684.88;;;23.17;46.43
46007;BME280;31738;50.188;8.524;2023-06-10T06:39:35;98689.03;;;23.27;46.78
46007;BME280;31738;50.188;8.524;2023-06-10T06:42:00;98690.03;;;23.38;46.96
46007;BME280;31738;50.188;8.524;2023-06-10T06:44:45;98691.69;;;23.42;46.37
46007;BME280;31738;50.188;8.524;2023-06-10T06:47:10;98696.97;;;23.51;46.00
46007;BME280;31738;50.188;8.524;2023-06-10T06:49:37;98692.53;;;23.62;46.96
46007;BME280;31738;50.188;8.524;2023-06-10T06:52:03;98693.47;;;23.70;46.25
46007;BME280;31738;50.188;8.524;2023-06-10T06:54:28;98686.25;;;23.81;47.04
46007;BME280;31738;50.188;8.524;2023-06-10T06:56:57;98688.03;;;23.92;46.26
46007;BME280;31738;50.188;8.524;2023-06-10T06:59:22;98695.78;;;24.06;46.24
46007;BME280;31738;50.188;8.524;2023-06-10T07:01:48;98698.31;;;24.14;45.50
46007;BME280;31738;50.188;8.524;2023-06-10T07:04:15;98698.88;;;24.23;45.96
46007;BME280;31738;50.188;8.524;2023-06-10T07:06:41;98693.22;;;24.35;46.05
46007;BME280;31738;50.188;8.524;2023-06-10T07:09:08;98703.56;;;24.45;45.17
46007;BME280;31738;50.188;8.524;2023-06-10T07:12:01;98706.25;;;24.64;45.02
46007;BME280;31738;50.188;8.524;2023-06-10T07:15:19;98713.34;;;24.65;45.10
46007;BME280;31738;50.188;8.524;2023-06-10T07:17:50;98710.00;;;24.75;44.88
46007;BME280;31738;50.188;8.524;2023-06-10T07:20:19;98710.25;;;24.89;45.32
46007;BME280;31738;50.188;8.524;2023-06-10T07:22:44;98706.06;;;24.99;45.40
46007;BME280;31738;50.188;8.524;2023-06-10T07:25:10;98718.81;;;25.10;45.15
46007;BME280;31738;50.188;8.524;2023-06-10T07:27:35;98711.94;;;25.23;45.43
46007;BME280;31738;50.188;8.524;2023-06-10T07:30:08;98719.44;;;25.27;44.95
46007;BME280;31738;50.188;8.524;2023-06-10T07:32:37;98726.84;;;25.23;44.88
46007;BME280;31738;50.188;8.524;2023-06-10T07:35:02;98730.09;;;25.32;44.48
46007;BME280;31738;50.188;8.524;2023-06-10T07:37:31;98722.41;;;25.41;44.89
46007;BME280;31738;50.188;8.524;2023-06-10T07:39:56;98719.81;;;25.51;44.89
46007;BME280;31738;50.188;8.524;2023-06-10T07:42:22;98721.13;;;25.61;45.04
46007;BME280;31738;50.188;8.524;2023-06-10T07:44:47;98719.25;;;25.68;44.93
46007;BME280;31738;50.188;8.524;2023-06-10T07:47:14;98722.16;;;25.79;44.90
46007;BME280;31738;50.188;8.524;2023-06-10T07:49:42;98710.59;;;25.96;45.70
46007;BME280;31738;50.188;8.524;2023-06-10T07:52:19;98714.59;;;26.02;44.22
46007;BME280;31738;50.188;8.524;2023-06-10T07:54:44;98726.56;;;26.16;43.99
46007;BME280;31738;50.188;8.524;2023-06-10T07:57:10;98734.94;;;26.27;43.21
46007;BME280;31738;50.188;8.524;2023-06-10T07:59:36;98715.78;;;26.37;44.13
46007;BME280;31738;50.188;8.524;2023-06-10T08:02:04;98736.34;;;26.47;42.96
46007;BME280;31738;50.188;8.524;2023-06-10T08:04:33;98728.53;;;26.52;43.14
46007;BME280;31738;50.188;8.524;2023-06-10T08:07:00;98726.69;;;26.63;43.57
46007;BME280;31738;50.188;8.524;2023-06-10T08:09:25;98728.75;;;26.73;42.97
46007;BME280;31738;50.188;8.524;2023-06-10T08:11:51;98728.03;;;26.80;42.80
46007;BME280;31738;50.188;8.524;2023-06-10T08:14:16;98732.81;;;26.87;42.94
46007;BME280;31738;50.188;8.524;2023-06-10T08:16:43;98723.06;;;26.96;43.93
46007;BME280;31738;50.188;8.524;2023-06-10T08:19:09;98731.78;;;27.05;43.61
46007;BME280;31738;50.188;8.524;2023-06-10T08:21:35;98724.41;;;27.16;42.80
46007;BME280;31738;50.188;8.524;2023-06-10T08:24:06;98723.69;;;27.26;44.23
46007;BME280;31738;50.188;8.524;2023-06-10T08:26:32;98719.81;;;27.34;44.20
46007;BME280;31738;50.188;8.524;2023-06-10T08:29:00;98725.38;;;27.41;42.69
46007;BME280;31738;50.188;8.524;2023-06-10T08:31:26;98739.97;;;27.45;43.09
46007;BME280;31738;50.188;8.524;2023-06-10T08:33:52;98747.47;;;27.48;41.94
46007;BME280;31738;50.188;8.524;2023-06-10T08:36:17;98753.84;;;27.59;41.83
46007;BME280;31738;50.188;8.524;2023-06-10T08:38:42;98737.75;;;27.68;43.42
46007;BME280;31738;50.188;8.524;2023-06-10T08:41:09;98743.28;;;27.75;43.61
46007;BME280;31738;50.188;8.524;2023-06-10T08:44:01;98754.06;;;27.94;41.90
46007;BME280;31738;50.188;8.524;2023-06-10T08:46:31;98765.84;;;27.88;39.69
46007;BME280;31738;50.188;8.524;2023-06-10T08:49:01;98767.03;;;27.90;40.80
46007;BME280;31738;50.188;8.524;2023-06-10T08:51:29;98769.41;;;27.92;40.68
46007;BME280;31738;50.188;8.524;2023-06-10T08:54:01;98786.34;;;27.94;38.36
46007;BME280;31738;50.188;8.524;2023-06-10T08:56:28;98787.81;;;27.81;38.92
46007;BME280;31738;50.188;8.524;2023-06-10T08:58:56;98781.59;;;27.87;38.80
46007;BME280;31738;50.188;8.524;2023-06-10T09:01:24;98787.16;;;27.98;39.40
46007;BME280;31738;50.188;8.524;2023-06-10T09:03:51;98782.50;;;28.12;41.06
46007;BME280;31738;50.188;8.524;2023-06-10T09:06:17;98793.94;;;28.14;38.67
46007;BME280;31738;50.188;8.524;2023-06-10T09:08:43;98797.88;;;28.13;38.44
46007;BME280;31738;50.188;8.524;2023-06-10T09:11:09;98780.97;;;28.22;39.21
46007;BME280;31738;50.188;8.524;2023-06-10T09:13:34;98782.56;;;28.30;40.05
46007;BME280;31738;50.188;8.524;2023-06-10T09:16:00;98785.00;;;28.42;39.04
46007;BME280;31738;50.188;8.524;2023-06-10T09:18:28;98784.25;;;28.56;38.57
46007;BME280;31738;50.188;8.524;2023-06-10T09:20:53;98773.25;;;28.70;40.25
46007;BME280;31738;50.188;8.524;2023-06-10T09:23:19;98779.53;;;28.70;38.97
46007;BME280;31738;50.188;8.524;2023-06-10T09:25:44;98774.44;;;28.83;39.83
46007;BME280;31738;50.188;8.524;2023-06-10T09:28:14;98780.38;;;28.92;38.88
46007;BME280;31738;50.188;8.524;2023-06-10T09:30:41;98774.47;;;29.00;39.44
46007;BME280;31738;50.188;8.524;2023-06-10T09:33:11;98767.75;;;29.19;40.11
46007;BME280;31738;50.188;8.524;2023-06-10T09:35:45;98771.72;;;29.32;39.57
46007;BME280;31738;50.188;8.524;2023-06-10T09:38:11;98765.38;;;29.42;39.90
46007;BME280;31738;50.188;8.524;2023-06-10T09:40:51;98758.66;;;29.64;39.86
46007;BME280;31738;50.188;8.524;2023-06-10T09:43:17;98759.06;;;29.66;39.54
46007;BME280;31738;50.188;8.524;2023-06-10T09:45:43;98765.34;;;29.80;38.32
46007;BME280;31738;50.188;8.524;2023-06-10T09:48:09;98775.59;;;29.87;38.53
46007;BME280;31738;50.188;8.524;2023-06-10T09:50:36;98776.75;;;29.97;38.26
46007;BME280;31738;50.188;8.524;2023-06-10T09:53:06;98764.47;;;30.05;39.96
46007;BME280;31738;50.188;8.524;2023-06-10T09:55:37;98769.97;;;30.08;39.55
46007;BME280;31738;50.188;8.524;2023-06-10T09:58:03;98763.63;;;30.15;39.39
46007;BME280;31738;50.188;8.524;2023-06-10T10:00:32;98769.13;;;30.32;38.03
46007;BME280;31738;50.188;8.524;2023-06-10T10:02:58;98781.34;;;30.38;36.93
46007;BME280;31738;50.188;8.524;2023-06-10T10:05:23;98778.50;;;30.52;37.31
46007;BME280;31738;50.188;8.524;2023-06-10T10:07:49;98783.28;;;30.48;35.80
46007;BME280;31738;50.188;8.524;2023-06-10T10:10:17;98774.94;;;30.55;37.52
46007;BME280;31738;50.188;8.524;2023-06-10T10:12:45;98778.44;;;30.63;36.86
46007;BME280;31738;50.188;8.524;2023-06-10T10:15:11;98783.13;;;30.69;37.62
46007;BME280;31738;50.188;8.524;2023-06-10T10:17:40;98778.31;;;30.87;36.75
46007;BME280;31738;50.188;8.524;2023-06-10T10:20:11;98772.25;;;31.03;36.38
46007;BME280;31738;50.188;8.524;2023-06-10T10:22:39;98782.03;;;31.18;35.41
46007;BME280;31738;50.188;8.524;2023-06-10T10:25:11;98784.69;;;31.35;35.71
46007;BME280;31738;50.188;8.524;2023-06-10T10:28:02;98776.97;;;31.53;36.87
46007;BME280;31738;50.188;8.524;2023-06-10T10:30:35;98784.16;;;31.47;36.84
46007;BME280;31738;50.188;8.524;2023-06-10T10:33:18;98792.91;;;31.46;35.48
46007;BME280;31738;50.188;8.524;2023-06-10T10:35:46;98781.03;;;31.45;36.39
46007;BME280;31738;50.188;8.524;2023-06-10T10:38:11;98800.44;;;31.45;34.76
46007;BME280;31738;50.188;8.524;2023-06-10T10:40:38;98796.09;;;31.44;35.27
46007;BME280;31738;50.188;8.524;2023-06-10T10:43:05;98807.22;;;31.41;33.95
46007;BME280;31738;50.188;8.524;2023-06-10T10:45:33;98799.25;;;31.46;33.87
46007;BME280;31738;50.188;8.524;2023-06-10T10:48:05;98811.84;;;31.55;34.59
46007;BME280;31738;50.188;8.524;2023-06-10T10:50:31;98796.38;;;31.57;34.35
46007;BME280;31738;50.188;8.524;2023-06-10T10:53:04;98802.41;;;31.48;34.84
46007;BME280;31738;50.188;8.524;2023-06-10T10:55:30;98800.78;;;31.51;34.24
46007;BME280;31738;50.188;8.524;2023-06-10T10:58:02;98789.44;;;31.76;34.05
46007;BME280;31738;50.188;8.524;2023-06-10T11:00:31;98797.22;;;31.91;34.97
46007;BME280;31738;50.188;8.524;2023-06-10T11:05:49;98782.31;;;32.12;35.44
46007;BME280;31738;50.188;8.524;2023-06-10T11:11:00;98790.56;;;32.19;32.78
46007;BME280;31738;50.188;8.524;2023-06-10T11:13:27;98783.47;;;32.14;32.85
46007;BME280;31738;50.188;8.524;2023-06-10T11:15:57;98784.06;;;32.29;32.82
46007;BME280;31738;50.188;8.524;2023-06-10T11:18:24;98784.06;;;32.29;32.82
46007;BME280;31738;50.188;8.524;2023-06-10T11:26:13;98791.00;;;33.04;32.38
46007;BME280;31738;50.188;8.524;2023-06-10T11:31:21;98804.66;;;32.95;30.60
46007;BME280;31738;50.188;8.524;2023-06-10T11:33:47;98812.31;;;32.87;30.46
46007;BME280;31738;50.188;8.524;2023-06-10T11:36:14;98808.19;;;32.99;29.97
46007;BME280;31738;50.188;8.524;2023-06-10T11:38:40;98811.94;;;33.12;30.67
46007;BME280;31738;50.188;8.524;2023-06-10T11:41:06;98825.00;;;33.15;29.41
46007;BME280;31738;50.188;8.524;2023-06-10T11:43:33;98820.69;;;33.37;29.73
46007;BME280;31738;50.188;8.524;2023-06-10T11:45:59;98821.13;;;33.59;29.95
46007;BME280;31738;50.188;8.524;2023-06-10T11:48:25;98825.66;;;33.49;29.45
46007;BME280;31738;50.188;8.524;2023-06-10T11:50:53;98817.94;;;33.34;29.26
46007;BME280;31738;50.188;8.524;2023-06-10T11:53:19;98841.34;;;33.36;28.20
46007;BME280;31738;50.188;8.524;2023-06-10T11:55:48;98831.06;;;33.33;28.31
46007;BME280;31738;50.188;8.524;2023-06-10T11:58:18;98830.94;;;33.17;30.18
46007;BME280;31738;50.188;8.524;2023-06-10T12:00:48;98814.75;;;32.82;30.26
46007;BME280;31738;50.188;8.524;2023-06-10T12:03:14;98823.13;;;32.78;30.00
46007;BME280;31738;50.188;8.524;2023-06-10T12:05:40;98813.00;;;32.95;29.92
46007;BME280;31738;50.188;8.524;2023-06-10T12:08:09;98811.00;;;32.95;30.22
46007;BME280;31738;50.188;8.524;2023-06-10T12:10:42;98803.25;;;32.80;29.66
46007;BME280;31738;50.188;8.524;2023-06-10T12:13:11;98810.56;;;32.40;30.15
46007;BME280;31738;50.188;8.524;2023-06-10T12:15:36;98805.94;;;32.27;30.43
46007;BME280;31738;50.188;8.524;2023-06-10T12:18:02;98797.44;;;32.41;31.52
46007;BME280;31738;50.188;8.524;2023-06-10T12:20:30;98796.97;;;32.12;30.15
46007;BME280;31738;50.188;8.524;2023-06-10T12:22:59;98800.06;;;31.84;30.78
46007;BME280;31738;50.188;8.524;2023-06-10T12:25:26;98788.75;;;31.65;31.99
46007;BME280;31738;50.188;8.524;2023-06-10T12:27:53;98774.34;;;31.77;32.47
46007;BME280;31738;50.188;8.524;2023-06-10T12:30:24;98766.13;;;32.07;31.87
46007;BME280;31738;50.188;8.524;2023-06-10T12:32:50;98756.38;;;32.25;31.75
46007;BME280;31738;50.188;8.524;2023-06-10T12:35:17;98746.91;;;32.53;31.66
46007;BME280;31738;50.188;8.524;2023-06-10T12:37:55;98749.22;;;32.81;31.97
46007;BME280;31738;50.188;8.524;2023-06-10T12:40:30;98756.16;;;32.69;31.76
46007;BME280;31738;50.188;8.524;2023-06-10T12:42:57;98757.06;;;32.33;32.21
46007;BME280;31738;50.188;8.524;2023-06-10T12:45:27;98757.59;;;31.87;32.05
46007;BME280;31738;50.188;8.524;2023-06-10T12:48:04;98767.56;;;31.81;32.42
46007;BME280;31738;50.188;8.524;2023-06-10T12:50:31;98756.81;;;31.90;31.87
46007;BME280;31738;50.188;8.524;2023-06-10T12:52:56;98759.69;;;32.13;31.57
46007;BME280;31738;50.188;8.524;2023-06-10T12:55:22;98751.59;;;32.26;31.21
46007;BME280;31738;50.188;8.524;2023-06-10T12:57:49;98753.00;;;32.41;31.70
46007;BME280;31738;50.188;8.524;2023-06-10T13:00:15;98755.28;;;32.49;30.99
46007;BME280;31738;50.188;8.524;2023-06-10T13:02:41;98759.19;;;32.52;31.08
46007;BME280;31738;50.188;8.524;2023-06-10T13:05:06;98766.06;;;32.44;30.28
46007;BME280;31738;50.188;8.524;2023-06-10T13:07:32;98757.81;;;32.37;30.79
46007;BME280;31738;50.188;8.524;2023-06-10T13:09:58;98749.75;;;32.46;31.74
46007;BME280;31738;50.188;8.524;2023-06-10T13:12:25;98743.28;;;32.56;32.17
46007;BME280;31738;50.188;8.524;2023-06-10T13:14:51;98745.78;;;32.47;31.79